Talcott, West Virginia
Current Conditions -  °F | °C
As of 10:51 AM on Friday 24 Oct 2014 (Local Time) from KBKW Reporting Station
Clear Clear  
Wind Chill: 47°   Ceiling: Unl
Heat Index: 47°   Visibility: 10mi
Dew Point: 42°   Wind: 3mph
Humidity: 83%   Direction: 260°W
Pressure: 30.13"   Gusts: NA
Location:  37.65°N, 80.75°W
Report Text: KBKW 241451Z AUTO 26003KT 10SM CLR 08/06 A3013 RMK AO2 SLP212 T00830056 51008 TSNO
Loading
Personal Weather Stations






























Interactive Weather Map
Tropical Storm Tracking
New forecast layout! Learn more

10-Day Weather Forecast

Advertisements
Track Severe Weather on mobile